createdAt,value
2022-10-31T00:01:17.526Z,47.95
2022-10-31T00:06:22.250Z,41.27
2022-10-31T00:11:25.429Z,39.93
2022-10-31T00:16:29.145Z,34.35
2022-10-31T00:21:33.394Z,79.03
2022-10-31T00:26:36.269Z,27.00
2022-10-31T00:31:39.002Z,40.63
2022-10-31T00:36:43.100Z,51.45
2022-10-31T00:41:45.818Z,27.07
2022-10-31T00:46:48.501Z,122.85
2022-10-31T00:51:52.572Z,30.98
2022-10-31T00:56:55.287Z,30.30
2022-10-31T01:01:58.183Z,63.17
2022-10-31T01:07:02.387Z,63.35
2022-10-31T01:12:05.532Z,37.03
2022-10-31T01:17:08.217Z,42.13
2022-10-31T01:22:12.297Z,25.42
2022-10-31T01:27:14.981Z,44.80
2022-10-31T01:32:17.671Z,26.70
2022-10-31T01:37:21.733Z,29.67
2022-10-31T01:42:25.398Z,29.17
2022-10-31T01:47:45.236Z,26.83
2022-10-31T01:52:53.004Z,34.40
2022-10-31T01:57:59.790Z,25.48
2022-10-31T02:03:03.167Z,27.42
2022-10-31T02:08:13.918Z,36.03
2022-10-31T02:13:17.562Z,30.75
2022-10-31T02:18:21.583Z,33.92
2022-10-31T02:24:02.856Z,22.50
2022-10-31T02:29:30.149Z,26.98
2022-10-31T02:34:39.797Z,22.70
2022-10-31T02:39:52.491Z,24.13
2022-10-31T02:45:02.492Z,26.70
2022-10-31T02:50:10.969Z,30.65
2022-10-31T02:55:35.230Z,33.03
2022-10-31T03:00:51.169Z,37.30
2022-10-31T03:06:05.490Z,58.63
2022-10-31T03:11:10.258Z,56.45
2022-10-31T03:16:17.980Z,41.67
2022-10-31T03:21:25.913Z,44.88
2022-10-31T03:26:29.614Z,55.63
2022-10-31T03:31:35.943Z,35.10
2022-10-31T03:36:42.094Z,35.50
2022-10-31T03:41:51.619Z,29.80
2022-10-31T03:46:54.806Z,22.83
2022-10-31T03:52:04.399Z,32.53
2022-10-31T03:57:13.893Z,21.52
2022-10-31T04:02:19.132Z,22.48
2022-10-31T04:07:28.593Z,29.43
2022-10-31T04:12:33.572Z,25.98
2022-10-31T04:17:41.036Z,32.55
2022-10-31T04:22:45.400Z,23.50
2022-10-31T04:27:48.084Z,27.33
2022-10-31T04:32:50.789Z,28.98
2022-10-31T04:37:54.830Z,43.95
2022-10-31T04:42:57.717Z,26.87
2022-10-31T04:48:00.978Z,28.48
2022-10-31T04:53:05.392Z,70.97
2022-10-31T04:58:08.121Z,46.30
2022-10-31T05:03:11.524Z,62.95
2022-10-31T05:08:15.845Z,32.42
2022-10-31T05:13:18.675Z,35.97
2022-10-31T05:18:21.594Z,28.03
2022-10-31T05:23:25.713Z,34.38
2022-10-31T05:28:28.421Z,32.75
2022-10-31T05:33:31.258Z,28.03
2022-10-31T05:38:35.359Z,26.35
2022-10-31T05:43:38.054Z,26.40
2022-10-31T05:48:40.955Z,74.73
2022-10-31T05:53:45.033Z,30.27
2022-10-31T05:58:47.759Z,33.35
2022-10-31T06:03:50.464Z,29.87
2022-10-31T06:08:54.543Z,25.63
2022-10-31T06:13:57.268Z,62.70
2022-10-31T06:19:00.112Z,25.95
2022-10-31T06:24:04.452Z,20.30
2022-10-31T06:29:07.152Z,25.27
2022-10-31T06:34:10.019Z,26.27
2022-10-31T06:39:14.174Z,28.77
2022-10-31T06:44:16.917Z,40.85
2022-10-31T06:49:20.207Z,49.42
2022-10-31T06:54:24.389Z,64.40
2022-10-31T06:59:27.064Z,181.53
2022-10-31T07:04:30.040Z,251.25
2022-10-31T07:09:34.105Z,315.98
2022-10-31T07:14:37.072Z,227.30
2022-10-31T07:19:39.962Z,348.42
2022-10-31T07:24:44.239Z,240.18
2022-10-31T07:29:46.943Z,323.23
2022-10-31T07:34:49.647Z,184.32
2022-10-31T07:39:53.885Z,280.05
2022-10-31T07:44:57.839Z,152.30
2022-10-31T07:50:00.894Z,341.13
2022-10-31T07:55:06.439Z,325.00
2022-10-31T08:00:11.722Z,311.65
2022-10-31T08:05:14.464Z,344.27
2022-10-31T08:10:18.567Z,487.08
2022-10-31T08:15:21.277Z,466.92
2022-10-31T08:20:24.469Z,375.53
2022-10-31T08:25:33.707Z,341.45
2022-10-31T08:30:40.486Z,527.95
2022-10-31T08:35:43.488Z,346.83
2022-10-31T08:40:50.476Z,391.50
2022-10-31T08:45:55.948Z,430.48
2022-10-31T08:50:59.486Z,424.17
2022-10-31T08:56:03.566Z,284.30
2022-10-31T09:01:06.520Z,436.92
2022-10-31T09:06:10.020Z,336.75
2022-10-31T09:11:14.263Z,379.63
2022-10-31T09:16:16.966Z,324.27
2022-10-31T09:21:19.761Z,288.27
2022-10-31T09:26:23.913Z,209.17
2022-10-31T09:31:26.753Z,254.40
2022-10-31T09:36:29.482Z,282.08
2022-10-31T09:41:51.896Z,211.00
2022-10-31T09:47:03.184Z,229.67
2022-10-31T09:52:12.232Z,254.55
2022-10-31T09:57:19.826Z,217.23
2022-10-31T10:02:27.749Z,281.10
2022-10-31T10:07:41.200Z,295.13
2022-10-31T10:13:03.582Z,298.38
2022-10-31T10:18:20.191Z,293.73
2022-10-31T10:23:37.436Z,279.37
2022-10-31T10:28:45.762Z,213.95
2022-10-31T10:34:00.078Z,207.85
2022-10-31T10:39:06.312Z,195.23
2022-10-31T10:44:12.791Z,224.73
2022-10-31T10:49:19.524Z,224.98
2022-10-31T10:54:43.389Z,199.43
2022-10-31T10:59:48.315Z,230.10
2022-10-31T11:04:53.933Z,205.07
2022-10-31T11:10:06.169Z,182.63
2022-10-31T11:15:21.528Z,156.07
2022-10-31T11:20:35.401Z,176.40
2022-10-31T11:25:38.452Z,154.43
2022-10-31T11:30:48.804Z,154.03
2022-10-31T11:35:55.173Z,133.30
2022-10-31T11:41:05.223Z,113.95
2022-10-31T11:46:14.380Z,98.27
2022-10-31T11:51:24.539Z,93.70
2022-10-31T11:56:27.957Z,85.45
2022-10-31T12:01:34.803Z,86.43
2022-10-31T12:06:40.028Z,83.67
2022-10-31T12:11:55.163Z,77.05
2022-10-31T12:17:06.194Z,77.88
2022-10-31T12:22:18.739Z,80.97
2022-10-31T12:27:32.902Z,79.07
2022-10-31T12:32:50.547Z,71.22
2022-10-31T12:38:13.214Z,74.33
2022-10-31T12:43:31.078Z,70.25
2022-10-31T12:48:58.471Z,70.32
2022-10-31T12:54:18.966Z,67.47
2022-10-31T12:59:30.415Z,64.27
2022-10-31T13:04:44.518Z,66.45
2022-10-31T13:09:57.150Z,66.32
2022-10-31T13:15:05.329Z,57.13
2022-10-31T13:20:21.022Z,56.75
2022-10-31T13:25:26.917Z,58.58
2022-10-31T13:30:34.006Z,56.23
2022-10-31T13:35:47.116Z,59.05
2022-10-31T13:40:57.484Z,53.15
2022-10-31T13:46:00.641Z,57.60
2022-10-31T13:51:08.135Z,53.23
2022-10-31T13:56:21.167Z,57.75
2022-10-31T14:01:24.916Z,53.30
2022-10-31T14:06:43.615Z,56.60
2022-10-31T14:11:48.383Z,55.72
2022-10-31T14:16:57.600Z,58.70
2022-10-31T14:22:01.747Z,66.23
2022-10-31T14:27:26.455Z,74.93
2022-10-31T14:32:29.930Z,74.57
2022-10-31T14:37:58.951Z,75.50
2022-10-31T14:43:37.477Z,64.10
2022-10-31T14:48:55.309Z,68.72
2022-10-31T14:54:01.589Z,84.05
2022-10-31T14:59:08.859Z,59.13
2022-10-31T15:04:23.805Z,63.40
2022-10-31T15:09:32.403Z,69.05
2022-10-31T15:14:35.579Z,61.67
2022-10-31T15:19:38.763Z,79.18
2022-10-31T15:24:44.372Z,116.97
2022-10-31T15:29:51.588Z,87.57
2022-10-31T15:34:56.851Z,74.70
2022-10-31T15:40:09.127Z,63.97
2022-10-31T15:45:21.756Z,61.28
2022-10-31T15:50:30.513Z,66.67
2022-10-31T15:55:40.026Z,62.08
2022-10-31T16:00:42.957Z,53.95
2022-10-31T16:05:49.210Z,63.70
2022-10-31T16:10:53.641Z,67.40
2022-10-31T16:16:21.359Z,89.28
2022-10-31T16:21:32.139Z,89.37
2022-10-31T16:26:36.689Z,80.77
2022-10-31T16:31:41.745Z,121.75
2022-10-31T16:36:44.673Z,108.88
2022-10-31T16:41:53.069Z,134.87
2022-10-31T16:47:11.449Z,128.23
2022-10-31T16:52:14.753Z,102.50
2022-10-31T16:57:22.585Z,103.47
2022-10-31T17:02:25.934Z,103.85
2022-10-31T17:07:28.830Z,87.25
2022-10-31T17:12:32.962Z,98.83
2022-10-31T17:17:35.820Z,91.40
2022-10-31T17:27:46.495Z,94.95
2022-10-31T17:32:51.573Z,102.20
2022-10-31T17:37:54.354Z,123.00
2022-10-31T17:42:59.538Z,107.95
2022-10-31T17:48:02.512Z,94.93
2022-10-31T17:53:05.388Z,114.70
2022-10-31T17:58:12.169Z,111.68
2022-10-31T18:03:14.957Z,139.80
2022-10-31T18:08:17.883Z,97.27
2022-10-31T18:13:22.586Z,178.27
2022-10-31T18:18:25.382Z,110.32
2022-10-31T18:23:28.361Z,235.00
2022-10-31T18:28:34.059Z,218.05
2022-10-31T18:33:37.849Z,248.32
2022-10-31T18:38:42.235Z,259.53
2022-10-31T18:43:47.418Z,314.15
2022-10-31T18:48:50.130Z,217.48
2022-10-31T18:53:53.849Z,199.83
2022-10-31T18:59:02.034Z,211.90
2022-10-31T19:04:05.121Z,270.48
2022-10-31T19:09:10.076Z,272.30
2022-10-31T19:14:14.962Z,399.07
2022-10-31T19:19:19.234Z,393.58
2022-10-31T19:24:22.040Z,333.40
2022-10-31T19:29:26.394Z,255.37
2022-10-31T19:34:29.145Z,164.30
2022-10-31T19:39:31.910Z,174.10
2022-10-31T19:44:36.271Z,195.80
2022-10-31T19:49:39.024Z,195.67
2022-10-31T19:54:41.807Z,187.80
2022-10-31T19:59:46.180Z,148.35
2022-10-31T20:04:48.915Z,195.43
2022-10-31T20:09:52.900Z,215.50
2022-10-31T20:14:56.988Z,226.50
2022-10-31T20:19:59.759Z,170.23
2022-10-31T20:25:02.750Z,194.18
2022-10-31T20:30:09.854Z,219.18
2022-10-31T20:35:12.572Z,218.77
2022-10-31T20:40:15.472Z,207.80
2022-10-31T20:45:19.759Z,171.77
2022-10-31T20:50:22.904Z,147.07
2022-10-31T20:55:25.725Z,120.93
2022-10-31T21:00:29.835Z,107.65
2022-10-31T21:05:32.581Z,110.70
2022-10-31T21:10:35.320Z,89.73
2022-10-31T21:15:39.662Z,95.13
2022-10-31T21:20:43.844Z,99.40
2022-10-31T21:25:46.625Z,87.03
2022-10-31T21:30:51.962Z,97.33
2022-10-31T21:35:54.706Z,80.47
2022-10-31T21:41:02.111Z,88.07
2022-10-31T21:46:07.666Z,94.73
2022-10-31T21:51:12.018Z,113.05
2022-10-31T21:56:14.797Z,109.10
2022-10-31T22:01:19.157Z,118.70
2022-10-31T22:06:22.523Z,110.30
2022-10-31T22:11:25.250Z,121.93
2022-10-31T22:16:30.752Z,130.30
2022-10-31T22:21:37.969Z,126.27
2022-10-31T22:26:41.515Z,144.48
2022-10-31T22:31:48.544Z,166.13
2022-10-31T22:36:55.349Z,141.90
2022-10-31T22:41:58.079Z,117.68
2022-10-31T22:47:02.151Z,121.38
2022-10-31T22:52:05.518Z,102.03
2022-10-31T22:57:08.228Z,104.80
2022-10-31T23:02:12.824Z,85.25
2022-10-31T23:07:15.762Z,102.03
2022-10-31T23:12:36.523Z,95.83
2022-10-31T23:17:40.687Z,70.82
2022-10-31T23:22:43.446Z,69.10
2022-10-31T23:27:46.175Z,93.60
2022-10-31T23:32:50.253Z,81.75
2022-10-31T23:37:52.957Z,100.03
2022-10-31T23:42:55.652Z,127.27
2022-10-31T23:48:00.009Z,70.22
2022-10-31T23:53:02.980Z,67.38
2022-10-31T23:58:05.700Z,113.03
